sensor_id;sensor_type;location;lat;lon;timestamp;temperature;humidity
66088;DHT22;52872;52.994;6.940;2022-07-10T00:02:13;16.70;92.30
66088;DHT22;52872;52.994;6.940;2022-07-10T00:04:40;16.70;92.20
66088;DHT22;52872;52.994;6.940;2022-07-10T00:07:07;16.80;92.20
66088;DHT22;52872;52.994;6.940;2022-07-10T00:09:34;16.70;92.20
66088;DHT22;52872;52.994;6.940;2022-07-10T00:12:01;16.70;92.30
66088;DHT22;52872;52.994;6.940;2022-07-10T00:14:28;16.70;92.20
66088;DHT22;52872;52.994;6.940;2022-07-10T00:16:55;16.60;92.40
66088;DHT22;52872;52.994;6.940;2022-07-10T00:19:22;16.60;92.50
66088;DHT22;52872;52.994;6.940;2022-07-10T00:21:49;16.60;92.40
66088;DHT22;52872;52.994;6.940;2022-07-10T00:24:16;16.50;92.40
66088;DHT22;52872;52.994;6.940;2022-07-10T00:26:43;16.50;92.60
66088;DHT22;52872;52.994;6.940;2022-07-10T00:29:10;16.50;92.80
66088;DHT22;52872;52.994;6.940;2022-07-10T00:31:37;16.50;92.90
66088;DHT22;52872;52.994;6.940;2022-07-10T00:34:04;16.40;93.00
66088;DHT22;52872;52.994;6.940;2022-07-10T00:36:31;16.40;93.00
66088;DHT22;52872;52.994;6.940;2022-07-10T00:38:58;16.40;93.10
66088;DHT22;52872;52.994;6.940;2022-07-10T00:41:25;16.40;93.40
66088;DHT22;52872;52.994;6.940;2022-07-10T00:43:56;16.40;93.20
66088;DHT22;52872;52.994;6.940;2022-07-10T00:46:25;16.40;93.30
66088;DHT22;52872;52.994;6.940;2022-07-10T00:48:54;16.40;93.30
66088;DHT22;52872;52.994;6.940;2022-07-10T00:51:24;16.40;93.20
66088;DHT22;52872;52.994;6.940;2022-07-10T00:53:51;16.30;93.20
66088;DHT22;52872;52.994;6.940;2022-07-10T00:56:22;16.30;93.30
66088;DHT22;52872;52.994;6.940;2022-07-10T00:58:50;16.30;93.30
66088;DHT22;52872;52.994;6.940;2022-07-10T01:01:17;16.30;93.40
66088;DHT22;52872;52.994;6.940;2022-07-10T01:03:45;16.30;93.50
66088;DHT22;52872;52.994;6.940;2022-07-10T01:06:13;16.30;93.40
66088;DHT22;52872;52.994;6.940;2022-07-10T01:08:41;16.30;93.60
66088;DHT22;52872;52.994;6.940;2022-07-10T01:11:09;16.30;93.50
66088;DHT22;52872;52.994;6.940;2022-07-10T01:13:37;16.30;93.40
66088;DHT22;52872;52.994;6.940;2022-07-10T01:16:05;16.30;93.60
66088;DHT22;52872;52.994;6.940;2022-07-10T01:18:32;16.30;93.50
66088;DHT22;52872;52.994;6.940;2022-07-10T01:20:59;16.30;93.30
66088;DHT22;52872;52.994;6.940;2022-07-10T01:23:26;16.30;93.40
66088;DHT22;52872;52.994;6.940;2022-07-10T01:25:53;16.30;93.50
66088;DHT22;52872;52.994;6.940;2022-07-10T01:28:21;16.30;93.60
66088;DHT22;52872;52.994;6.940;2022-07-10T01:30:48;16.30;93.40
66088;DHT22;52872;52.994;6.940;2022-07-10T01:33:16;16.30;93.40
66088;DHT22;52872;52.994;6.940;2022-07-10T01:35:43;16.20;93.40
66088;DHT22;52872;52.994;6.940;2022-07-10T01:38:10;16.10;93.30
66088;DHT22;52872;52.994;6.940;2022-07-10T01:40:37;16.10;93.40
66088;DHT22;52872;52.994;6.940;2022-07-10T01:43:04;16.10;93.40
66088;DHT22;52872;52.994;6.940;2022-07-10T01:45:32;16.10;93.60
66088;DHT22;52872;52.994;6.940;2022-07-10T01:47:59;16.10;93.60
66088;DHT22;52872;52.994;6.940;2022-07-10T01:50:26;16.10;93.70
66088;DHT22;52872;52.994;6.940;2022-07-10T01:52:53;16.20;93.60
66088;DHT22;52872;52.994;6.940;2022-07-10T01:55:20;16.20;93.50
66088;DHT22;52872;52.994;6.940;2022-07-10T01:57:47;16.20;93.60
66088;DHT22;52872;52.994;6.940;2022-07-10T02:00:14;16.20;93.80
66088;DHT22;52872;52.994;6.940;2022-07-10T02:02:41;16.20;93.70
66088;DHT22;52872;52.994;6.940;2022-07-10T02:05:28;16.20;93.80
66088;DHT22;52872;52.994;6.940;2022-07-10T02:07:54;16.10;93.90
66088;DHT22;52872;52.994;6.940;2022-07-10T02:10:21;16.10;94.00
66088;DHT22;52872;52.994;6.940;2022-07-10T02:12:48;16.10;94.10
66088;DHT22;52872;52.994;6.940;2022-07-10T02:15:15;16.00;94.10
66088;DHT22;52872;52.994;6.940;2022-07-10T02:17:42;16.00;94.30
66088;DHT22;52872;52.994;6.940;2022-07-10T02:20:09;16.00;94.30
66088;DHT22;52872;52.994;6.940;2022-07-10T02:22:37;16.00;94.40
66088;DHT22;52872;52.994;6.940;2022-07-10T02:25:04;16.00;94.60
66088;DHT22;52872;52.994;6.940;2022-07-10T02:27:32;16.00;94.60
66088;DHT22;52872;52.994;6.940;2022-07-10T02:29:58;16.00;94.50
66088;DHT22;52872;52.994;6.940;2022-07-10T02:32:25;15.90;94.70
66088;DHT22;52872;52.994;6.940;2022-07-10T02:34:52;15.90;94.70
66088;DHT22;52872;52.994;6.940;2022-07-10T02:37:20;15.90;94.70
66088;DHT22;52872;52.994;6.940;2022-07-10T02:39:46;15.90;94.80
66088;DHT22;52872;52.994;6.940;2022-07-10T02:42:13;15.80;94.80
66088;DHT22;52872;52.994;6.940;2022-07-10T02:44:40;15.80;94.80
66088;DHT22;52872;52.994;6.940;2022-07-10T02:47:07;15.80;94.90
66088;DHT22;52872;52.994;6.940;2022-07-10T02:49:34;15.90;94.80
66088;DHT22;52872;52.994;6.940;2022-07-10T02:52:01;15.90;94.70
66088;DHT22;52872;52.994;6.940;2022-07-10T02:54:28;15.90;94.60
66088;DHT22;52872;52.994;6.940;2022-07-10T02:56:55;15.90;94.50
66088;DHT22;52872;52.994;6.940;2022-07-10T02:59:22;15.90;94.30
66088;DHT22;52872;52.994;6.940;2022-07-10T03:01:49;15.80;94.60
66088;DHT22;52872;52.994;6.940;2022-07-10T03:04:16;15.80;94.40
66088;DHT22;52872;52.994;6.940;2022-07-10T03:06:43;15.70;94.50
66088;DHT22;52872;52.994;6.940;2022-07-10T03:09:10;15.70;94.60
66088;DHT22;52872;52.994;6.940;2022-07-10T03:11:37;15.60;94.60
66088;DHT22;52872;52.994;6.940;2022-07-10T03:14:03;15.60;94.80
66088;DHT22;52872;52.994;6.940;2022-07-10T03:16:32;15.60;94.90
66088;DHT22;52872;52.994;6.940;2022-07-10T03:18:59;15.50;94.80
66088;DHT22;52872;52.994;6.940;2022-07-10T03:21:26;15.50;94.90
66088;DHT22;52872;52.994;6.940;2022-07-10T03:23:53;15.50;94.90
66088;DHT22;52872;52.994;6.940;2022-07-10T03:26:20;15.40;94.80
66088;DHT22;52872;52.994;6.940;2022-07-10T03:28:47;15.40;94.90
66088;DHT22;52872;52.994;6.940;2022-07-10T03:31:13;15.40;94.90
66088;DHT22;52872;52.994;6.940;2022-07-10T03:33:40;15.30;94.90
66088;DHT22;52872;52.994;6.940;2022-07-10T03:36:07;15.20;95.00
66088;DHT22;52872;52.994;6.940;2022-07-10T03:38:34;15.20;94.90
66088;DHT22;52872;52.994;6.940;2022-07-10T03:41:01;15.20;95.00
66088;DHT22;52872;52.994;6.940;2022-07-10T03:43:28;15.20;94.90
66088;DHT22;52872;52.994;6.940;2022-07-10T03:45:56;15.10;94.90
66088;DHT22;52872;52.994;6.940;2022-07-10T03:48:24;15.10;94.80
66088;DHT22;52872;52.994;6.940;2022-07-10T03:50:51;15.10;94.90
66088;DHT22;52872;52.994;6.940;2022-07-10T03:53:18;15.10;94.80
66088;DHT22;52872;52.994;6.940;2022-07-10T03:55:45;15.10;94.80
66088;DHT22;52872;52.994;6.940;2022-07-10T03:58:12;15.10;94.70
66088;DHT22;52872;52.994;6.940;2022-07-10T04:00:39;15.10;94.70
66088;DHT22;52872;52.994;6.940;2022-07-10T04:03:09;15.10;94.60
66088;DHT22;52872;52.994;6.940;2022-07-10T04:05:36;15.10;94.50
66088;DHT22;52872;52.994;6.940;2022-07-10T04:08:04;15.20;94.50
66088;DHT22;52872;52.994;6.940;2022-07-10T04:10:31;15.20;94.50
66088;DHT22;52872;52.994;6.940;2022-07-10T04:12:58;15.20;94.50
66088;DHT22;52872;52.994;6.940;2022-07-10T04:15:26;15.20;94.40
66088;DHT22;52872;52.994;6.940;2022-07-10T04:17:53;15.20;94.50
66088;DHT22;52872;52.994;6.940;2022-07-10T04:20:21;15.30;94.50
66088;DHT22;52872;52.994;6.940;2022-07-10T04:22:48;15.50;94.30
66088;DHT22;52872;52.994;6.940;2022-07-10T04:25:16;15.60;94.20
66088;DHT22;52872;52.994;6.940;2022-07-10T04:27:43;15.80;94.00
66088;DHT22;52872;52.994;6.940;2022-07-10T04:30:10;16.00;93.90
66088;DHT22;52872;52.994;6.940;2022-07-10T04:32:37;16.10;93.60
66088;DHT22;52872;52.994;6.940;2022-07-10T04:35:04;16.30;93.50
66088;DHT22;52872;52.994;6.940;2022-07-10T04:37:31;16.40;93.20
66088;DHT22;52872;52.994;6.940;2022-07-10T04:39:58;16.40;93.30
66088;DHT22;52872;52.994;6.940;2022-07-10T04:42:25;16.50;93.40
66088;DHT22;52872;52.994;6.940;2022-07-10T04:44:53;16.60;93.30
66088;DHT22;52872;52.994;6.940;2022-07-10T04:47:19;16.60;93.20
66088;DHT22;52872;52.994;6.940;2022-07-10T04:49:46;16.70;93.20
66088;DHT22;52872;52.994;6.940;2022-07-10T04:52:13;16.70;93.20
66088;DHT22;52872;52.994;6.940;2022-07-10T04:54:40;16.80;93.00
66088;DHT22;52872;52.994;6.940;2022-07-10T04:57:07;16.90;92.90
66088;DHT22;52872;52.994;6.940;2022-07-10T04:59:34;17.00;92.90
66088;DHT22;52872;52.994;6.940;2022-07-10T05:02:01;17.20;92.90
66088;DHT22;52872;52.994;6.940;2022-07-10T05:04:28;17.30;92.80
66088;DHT22;52872;52.994;6.940;2022-07-10T05:06:55;17.50;92.70
66088;DHT22;52872;52.994;6.940;2022-07-10T05:09:22;17.60;92.60
66088;DHT22;52872;52.994;6.940;2022-07-10T05:11:49;17.60;92.40
66088;DHT22;52872;52.994;6.940;2022-07-10T05:14:15;17.70;92.30
66088;DHT22;52872;52.994;6.940;2022-07-10T05:16:43;17.70;92.40
66088;DHT22;52872;52.994;6.940;2022-07-10T05:19:10;17.80;92.30
66088;DHT22;52872;52.994;6.940;2022-07-10T05:21:37;17.80;92.30
66088;DHT22;52872;52.994;6.940;2022-07-10T05:24:04;17.90;92.10
66088;DHT22;52872;52.994;6.940;2022-07-10T05:26:31;17.90;92.20
66088;DHT22;52872;52.994;6.940;2022-07-10T05:28:58;17.90;92.10
66088;DHT22;52872;52.994;6.940;2022-07-10T05:31:25;17.70;92.10
66088;DHT22;52872;52.994;6.940;2022-07-10T05:33:51;17.60;92.40
66088;DHT22;52872;52.994;6.940;2022-07-10T05:36:18;17.60;92.70
66088;DHT22;52872;52.994;6.940;2022-07-10T05:38:45;17.50;92.80
66088;DHT22;52872;52.994;6.940;2022-07-10T05:41:12;17.50;93.00
66088;DHT22;52872;52.994;6.940;2022-07-10T05:43:39;17.50;93.10
66088;DHT22;52872;52.994;6.940;2022-07-10T05:46:06;17.50;93.10
66088;DHT22;52872;52.994;6.940;2022-07-10T05:48:33;17.60;93.10
66088;DHT22;52872;52.994;6.940;2022-07-10T05:51:00;17.60;93.10
66088;DHT22;52872;52.994;6.940;2022-07-10T05:53:47;17.60;93.30
66088;DHT22;52872;52.994;6.940;2022-07-10T05:56:14;17.60;93.20
66088;DHT22;52872;52.994;6.940;2022-07-10T05:58:41;17.70;93.30
66088;DHT22;52872;52.994;6.940;2022-07-10T06:01:08;17.70;93.20
66088;DHT22;52872;52.994;6.940;2022-07-10T06:03:35;17.80;93.10
66088;DHT22;52872;52.994;6.940;2022-07-10T06:06:02;17.80;93.10
66088;DHT22;52872;52.994;6.940;2022-07-10T06:08:29;17.80;93.10
66088;DHT22;52872;52.994;6.940;2022-07-10T06:10:56;17.90;93.00
66088;DHT22;52872;52.994;6.940;2022-07-10T06:13:23;17.90;93.00
66088;DHT22;52872;52.994;6.940;2022-07-10T06:15:50;18.00;92.90
66088;DHT22;52872;52.994;6.940;2022-07-10T06:18:17;18.00;92.90
66088;DHT22;52872;52.994;6.940;2022-07-10T06:20:44;18.00;92.90
66088;DHT22;52872;52.994;6.940;2022-07-10T06:23:11;18.00;92.60
66088;DHT22;52872;52.994;6.940;2022-07-10T06:25:38;18.10;92.60
66088;DHT22;52872;52.994;6.940;2022-07-10T06:28:05;18.20;92.30
66088;DHT22;52872;52.994;6.940;2022-07-10T06:30:32;18.20;92.30
66088;DHT22;52872;52.994;6.940;2022-07-10T06:32:59;18.30;92.20
66088;DHT22;52872;52.994;6.940;2022-07-10T06:35:26;18.40;92.30
66088;DHT22;52872;52.994;6.940;2022-07-10T06:37:52;18.40;92.10
66088;DHT22;52872;52.994;6.940;2022-07-10T06:40:20;18.50;92.30
66088;DHT22;52872;52.994;6.940;2022-07-10T06:42:47;18.50;92.10
66088;DHT22;52872;52.994;6.940;2022-07-10T06:45:18;18.50;92.20
66088;DHT22;52872;52.994;6.940;2022-07-10T06:47:45;18.30;92.00
66088;DHT22;52872;52.994;6.940;2022-07-10T06:50:26;18.30;92.20
66088;DHT22;52872;52.994;6.940;2022-07-10T06:52:53;18.30;92.70
66088;DHT22;52872;52.994;6.940;2022-07-10T06:55:21;18.30;92.50
66088;DHT22;52872;52.994;6.940;2022-07-10T06:57:48;18.40;92.30
66088;DHT22;52872;52.994;6.940;2022-07-10T07:00:15;18.40;92.40
66088;DHT22;52872;52.994;6.940;2022-07-10T07:02:42;18.50;92.60
66088;DHT22;52872;52.994;6.940;2022-07-10T07:05:09;18.50;93.00
66088;DHT22;52872;52.994;6.940;2022-07-10T07:07:37;18.40;95.00
66088;DHT22;52872;52.994;6.940;2022-07-10T07:10:05;18.20;95.80
66088;DHT22;52872;52.994;6.940;2022-07-10T07:12:32;18.10;95.70
66088;DHT22;52872;52.994;6.940;2022-07-10T07:14:59;18.10;95.80
66088;DHT22;52872;52.994;6.940;2022-07-10T07:17:26;18.20;95.70
66088;DHT22;52872;52.994;6.940;2022-07-10T07:20:01;18.40;95.50
66088;DHT22;52872;52.994;6.940;2022-07-10T07:22:47;18.70;95.30
66088;DHT22;52872;52.994;6.940;2022-07-10T07:25:33;19.00;94.70
66088;DHT22;52872;52.994;6.940;2022-07-10T07:28:00;19.20;93.80
66088;DHT22;52872;52.994;6.940;2022-07-10T07:30:27;19.20;93.80
66088;DHT22;52872;52.994;6.940;2022-07-10T07:32:54;19.30;94.00
66088;DHT22;52872;52.994;6.940;2022-07-10T07:35:21;19.20;94.30
66088;DHT22;52872;52.994;6.940;2022-07-10T07:37:49;19.20;94.50
66088;DHT22;52872;52.994;6.940;2022-07-10T07:40:21;19.30;94.70
66088;DHT22;52872;52.994;6.940;2022-07-10T07:42:53;19.30;94.50
66088;DHT22;52872;52.994;6.940;2022-07-10T07:45:24;19.40;94.50
66088;DHT22;52872;52.994;6.940;2022-07-10T07:47:53;19.50;94.10
66088;DHT22;52872;52.994;6.940;2022-07-10T07:50:24;19.70;94.00
66088;DHT22;52872;52.994;6.940;2022-07-10T07:52:53;19.80;93.40
66088;DHT22;52872;52.994;6.940;2022-07-10T07:55:21;20.00;93.10
66088;DHT22;52872;52.994;6.940;2022-07-10T07:57:51;20.30;92.80
66088;DHT22;52872;52.994;6.940;2022-07-10T08:00:21;20.70;92.20
66088;DHT22;52872;52.994;6.940;2022-07-10T08:02:50;20.90;91.70
66088;DHT22;52872;52.994;6.940;2022-07-10T08:05:18;21.00;91.50
66088;DHT22;52872;52.994;6.940;2022-07-10T08:07:48;21.20;91.20
66088;DHT22;52872;52.994;6.940;2022-07-10T08:10:17;21.40;90.90
66088;DHT22;52872;52.994;6.940;2022-07-10T08:12:45;21.50;90.50
66088;DHT22;52872;52.994;6.940;2022-07-10T08:15:15;21.50;90.40
66088;DHT22;52872;52.994;6.940;2022-07-10T08:17:42;21.50;90.40
66088;DHT22;52872;52.994;6.940;2022-07-10T08:20:12;21.50;90.20
66088;DHT22;52872;52.994;6.940;2022-07-10T08:22:40;21.50;89.40
66088;DHT22;52872;52.994;6.940;2022-07-10T08:25:08;21.30;89.90
66088;DHT22;52872;52.994;6.940;2022-07-10T08:27:36;21.20;90.00
66088;DHT22;52872;52.994;6.940;2022-07-10T08:30:04;21.10;90.00
66088;DHT22;52872;52.994;6.940;2022-07-10T08:32:31;21.00;90.00
66088;DHT22;52872;52.994;6.940;2022-07-10T08:34:58;21.00;90.00
66088;DHT22;52872;52.994;6.940;2022-07-10T08:37:26;20.90;90.10
66088;DHT22;52872;52.994;6.940;2022-07-10T08:39:53;20.80;90.30
66088;DHT22;52872;52.994;6.940;2022-07-10T08:42:20;20.70;90.20
66088;DHT22;52872;52.994;6.940;2022-07-10T08:44:47;20.60;90.30
66088;DHT22;52872;52.994;6.940;2022-07-10T08:47:18;20.60;90.50
66088;DHT22;52872;52.994;6.940;2022-07-10T08:49:47;20.60;90.50
66088;DHT22;52872;52.994;6.940;2022-07-10T08:52:37;20.70;90.60
66088;DHT22;52872;52.994;6.940;2022-07-10T08:55:05;20.80;90.30
66088;DHT22;52872;52.994;6.940;2022-07-10T08:57:33;20.70;90.50
66088;DHT22;52872;52.994;6.940;2022-07-10T09:00:01;20.50;91.40
66088;DHT22;52872;52.994;6.940;2022-07-10T09:02:28;20.30;92.60
66088;DHT22;52872;52.994;6.940;2022-07-10T09:04:55;19.90;94.20
66088;DHT22;52872;52.994;6.940;2022-07-10T09:07:23;19.60;95.40
66088;DHT22;52872;52.994;6.940;2022-07-10T09:09:56;19.60;95.70
66088;DHT22;52872;52.994;6.940;2022-07-10T09:12:24;19.60;96.00
66088;DHT22;52872;52.994;6.940;2022-07-10T09:14:52;19.60;95.30
66088;DHT22;52872;52.994;6.940;2022-07-10T09:17:19;19.60;95.10
66088;DHT22;52872;52.994;6.940;2022-07-10T09:19:46;19.70;94.70
66088;DHT22;52872;52.994;6.940;2022-07-10T09:22:14;19.80;94.80
66088;DHT22;52872;52.994;6.940;2022-07-10T09:24:45;20.10;94.60
66088;DHT22;52872;52.994;6.940;2022-07-10T09:27:15;20.30;94.00
66088;DHT22;52872;52.994;6.940;2022-07-10T09:29:47;20.50;93.70
66088;DHT22;52872;52.994;6.940;2022-07-10T09:32:15;20.60;93.20
66088;DHT22;52872;52.994;6.940;2022-07-10T09:34:48;20.80;93.20
66088;DHT22;52872;52.994;6.940;2022-07-10T09:37:24;20.80;92.50
66088;DHT22;52872;52.994;6.940;2022-07-10T09:39:57;21.00;92.40
66088;DHT22;52872;52.994;6.940;2022-07-10T09:42:39;21.10;91.80
66088;DHT22;52872;52.994;6.940;2022-07-10T09:45:13;21.20;91.70
66088;DHT22;52872;52.994;6.940;2022-07-10T09:47:58;21.60;91.60
66088;DHT22;52872;52.994;6.940;2022-07-10T09:50:32;21.90;91.00
66088;DHT22;52872;52.994;6.940;2022-07-10T09:53:04;21.80;90.30
66088;DHT22;52872;52.994;6.940;2022-07-10T09:55:33;21.90;90.30
66088;DHT22;52872;52.994;6.940;2022-07-10T10:03:03;21.60;90.60
66088;DHT22;52872;52.994;6.940;2022-07-10T10:05:43;21.60;90.30
66088;DHT22;52872;52.994;6.940;2022-07-10T10:08:27;21.70;90.20
66088;DHT22;52872;52.994;6.940;2022-07-10T10:10:57;21.60;90.20
66088;DHT22;52872;52.994;6.940;2022-07-10T10:13:27;21.50;90.60
66088;DHT22;52872;52.994;6.940;2022-07-10T10:15:55;21.30;92.50
66088;DHT22;52872;52.994;6.940;2022-07-10T10:18:24;21.20;92.00
66088;DHT22;52872;52.994;6.940;2022-07-10T10:20:53;21.10;92.00
66088;DHT22;52872;52.994;6.940;2022-07-10T10:23:25;21.10;91.90
66088;DHT22;52872;52.994;6.940;2022-07-10T10:25:56;21.00;91.70
66088;DHT22;52872;52.994;6.940;2022-07-10T10:28:25;21.10;92.20
66088;DHT22;52872;52.994;6.940;2022-07-10T10:30:54;21.10;91.80
66088;DHT22;52872;52.994;6.940;2022-07-10T10:36:03;20.80;92.70
66088;DHT22;52872;52.994;6.940;2022-07-10T10:41:39;20.50;94.40
66088;DHT22;52872;52.994;6.940;2022-07-10T10:49:18;20.20;96.30
66088;DHT22;52872;52.994;6.940;2022-07-10T10:52:00;20.10;96.30
66088;DHT22;52872;52.994;6.940;2022-07-10T10:57:44;20.30;96.00
66088;DHT22;52872;52.994;6.940;2022-07-10T11:00:29;20.50;95.30
66088;DHT22;52872;52.994;6.940;2022-07-10T11:03:13;20.90;94.80
66088;DHT22;52872;52.994;6.940;2022-07-10T11:05:41;21.30;93.70
66088;DHT22;52872;52.994;6.940;2022-07-10T11:08:10;21.50;93.70
66088;DHT22;52872;52.994;6.940;2022-07-10T11:15:40;21.70;92.60
66088;DHT22;52872;52.994;6.940;2022-07-10T11:18:10;21.50;94.20
66088;DHT22;52872;52.994;6.940;2022-07-10T11:20:42;21.10;94.60
66088;DHT22;52872;52.994;6.940;2022-07-10T11:26:06;21.20;93.70
66088;DHT22;52872;52.994;6.940;2022-07-10T11:31:10;21.50;93.00
66088;DHT22;52872;52.994;6.940;2022-07-10T11:33:42;21.60;92.30
66088;DHT22;52872;52.994;6.940;2022-07-10T11:36:16;21.80;92.20
66088;DHT22;52872;52.994;6.940;2022-07-10T11:38:44;21.80;92.10
66088;DHT22;52872;52.994;6.940;2022-07-10T11:41:20;21.60;92.30
66088;DHT22;52872;52.994;6.940;2022-07-10T11:43:55;21.60;92.10
66088;DHT22;52872;52.994;6.940;2022-07-10T11:46:29;21.40;92.70
66088;DHT22;52872;52.994;6.940;2022-07-10T11:48:57;21.10;93.70
66088;DHT22;52872;52.994;6.940;2022-07-10T11:51:29;20.70;95.10
66088;DHT22;52872;52.994;6.940;2022-07-10T11:54:03;20.60;95.80
66088;DHT22;52872;52.994;6.940;2022-07-10T11:56:33;20.50;95.50
66088;DHT22;52872;52.994;6.940;2022-07-10T11:59:04;20.30;95.50
66088;DHT22;52872;52.994;6.940;2022-07-10T12:01:40;20.30;96.40
66088;DHT22;52872;52.994;6.940;2022-07-10T12:04:08;20.30;95.80
66088;DHT22;52872;52.994;6.940;2022-07-10T12:06:38;20.30;95.90
66088;DHT22;52872;52.994;6.940;2022-07-10T12:09:07;20.50;95.80
66088;DHT22;52872;52.994;6.940;2022-07-10T12:11:35;20.90;95.50
66088;DHT22;52872;52.994;6.940;2022-07-10T12:14:15;21.20;94.40
66088;DHT22;52872;52.994;6.940;2022-07-10T12:16:48;21.70;94.00
66088;DHT22;52872;52.994;6.940;2022-07-10T12:19:17;21.90;93.60
66088;DHT22;52872;52.994;6.940;2022-07-10T12:21:46;22.00;92.50
66088;DHT22;52872;52.994;6.940;2022-07-10T12:24:15;22.00;92.70
66088;DHT22;52872;52.994;6.940;2022-07-10T12:26:44;22.10;92.70
66088;DHT22;52872;52.994;6.940;2022-07-10T12:29:21;22.00;92.90
66088;DHT22;52872;52.994;6.940;2022-07-10T12:31:50;22.10;93.00
66088;DHT22;52872;52.994;6.940;2022-07-10T12:34:18;21.80;93.10
66088;DHT22;52872;52.994;6.940;2022-07-10T12:39:14;21.40;93.70
66088;DHT22;52872;52.994;6.940;2022-07-10T12:42:00;21.20;94.60
66088;DHT22;52872;52.994;6.940;2022-07-10T12:44:40;21.00;94.50
66088;DHT22;52872;52.994;6.940;2022-07-10T12:47:12;21.00;95.30
66088;DHT22;52872;52.994;6.940;2022-07-10T12:50:03;20.90;95.40
66088;DHT22;52872;52.994;6.940;2022-07-10T12:52:32;21.00;94.80
66088;DHT22;52872;52.994;6.940;2022-07-10T12:57:51;21.00;94.60
66088;DHT22;52872;52.994;6.940;2022-07-10T13:00:32;20.80;95.30
66088;DHT22;52872;52.994;6.940;2022-07-10T13:05:33;20.70;95.60
66088;DHT22;52872;52.994;6.940;2022-07-10T13:08:21;21.00;95.40
66088;DHT22;52872;52.994;6.940;2022-07-10T13:10:52;21.40;94.90
66088;DHT22;52872;52.994;6.940;2022-07-10T13:13:19;21.50;94.50
66088;DHT22;52872;52.994;6.940;2022-07-10T13:15:47;21.70;94.00
66088;DHT22;52872;52.994;6.940;2022-07-10T13:18:21;21.80;93.70
66088;DHT22;52872;52.994;6.940;2022-07-10T13:20:50;21.90;93.30
66088;DHT22;52872;52.994;6.940;2022-07-10T13:23:23;21.80;93.20
66088;DHT22;52872;52.994;6.940;2022-07-10T13:25:57;21.80;93.30
66088;DHT22;52872;52.994;6.940;2022-07-10T13:28:30;21.80;93.40
66088;DHT22;52872;52.994;6.940;2022-07-10T13:30:57;21.70;93.20
66088;DHT22;52872;52.994;6.940;2022-07-10T13:33:24;21.80;93.30
66088;DHT22;52872;52.994;6.940;2022-07-10T13:35:52;21.80;93.10
66088;DHT22;52872;52.994;6.940;2022-07-10T13:38:18;21.90;93.20
66088;DHT22;52872;52.994;6.940;2022-07-10T13:40:47;21.70;93.30
66088;DHT22;52872;52.994;6.940;2022-07-10T13:43:14;21.60;93.50
66088;DHT22;52872;52.994;6.940;2022-07-10T13:45:44;21.50;93.70
66088;DHT22;52872;52.994;6.940;2022-07-10T13:48:15;21.40;93.70
66088;DHT22;52872;52.994;6.940;2022-07-10T13:50:44;21.40;93.90
66088;DHT22;52872;52.994;6.940;2022-07-10T13:53:13;21.30;94.20
66088;DHT22;52872;52.994;6.940;2022-07-10T13:55:40;21.10;94.70
66088;DHT22;52872;52.994;6.940;2022-07-10T13:58:09;20.90;95.00
66088;DHT22;52872;52.994;6.940;2022-07-10T14:00:36;20.80;95.90
66088;DHT22;52872;52.994;6.940;2022-07-10T14:03:04;20.80;95.70
66088;DHT22;52872;52.994;6.940;2022-07-10T14:05:31;20.90;95.70
66088;DHT22;52872;52.994;6.940;2022-07-10T14:08:00;21.00;95.30
66088;DHT22;52872;52.994;6.940;2022-07-10T14:10:27;21.20;95.00
66088;DHT22;52872;52.994;6.940;2022-07-10T14:12:55;21.40;94.50
66088;DHT22;52872;52.994;6.940;2022-07-10T14:15:22;21.50;94.40
66088;DHT22;52872;52.994;6.940;2022-07-10T14:17:49;21.60;94.50
66088;DHT22;52872;52.994;6.940;2022-07-10T14:20:18;21.50;94.40
66088;DHT22;52872;52.994;6.940;2022-07-10T14:22:45;21.40;93.20
66088;DHT22;52872;52.994;6.940;2022-07-10T14:25:13;21.40;93.60
66088;DHT22;52872;52.994;6.940;2022-07-10T14:27:41;21.50;93.40
66088;DHT22;52872;52.994;6.940;2022-07-10T14:30:09;21.80;92.90
66088;DHT22;52872;52.994;6.940;2022-07-10T14:32:36;21.90;92.90
66088;DHT22;52872;52.994;6.940;2022-07-10T14:35:03;21.70;92.60
66088;DHT22;52872;52.994;6.940;2022-07-10T14:37:30;21.80;92.90
66088;DHT22;52872;52.994;6.940;2022-07-10T14:39:58;22.00;92.70
66088;DHT22;52872;52.994;6.940;2022-07-10T14:42:25;22.20;92.50
66088;DHT22;52872;52.994;6.940;2022-07-10T14:44:51;22.40;92.20
66088;DHT22;52872;52.994;6.940;2022-07-10T14:47:18;22.60;92.10
66088;DHT22;52872;52.994;6.940;2022-07-10T14:49:45;22.70;92.00
66088;DHT22;52872;52.994;6.940;2022-07-10T14:52:12;22.80;91.90
66088;DHT22;52872;52.994;6.940;2022-07-10T14:54:40;23.00;91.80
66088;DHT22;52872;52.994;6.940;2022-07-10T14:57:07;23.10;91.20
66088;DHT22;52872;52.994;6.940;2022-07-10T14:59:34;23.20;90.90
66088;DHT22;52872;52.994;6.940;2022-07-10T15:02:01;23.30;90.90
66088;DHT22;52872;52.994;6.940;2022-07-10T15:04:28;23.30;90.70
66088;DHT22;52872;52.994;6.940;2022-07-10T15:06:55;23.30;90.80
66088;DHT22;52872;52.994;6.940;2022-07-10T15:09:22;23.20;90.70
66088;DHT22;52872;52.994;6.940;2022-07-10T15:11:49;22.90;90.70
66088;DHT22;52872;52.994;6.940;2022-07-10T15:14:16;22.80;90.80
66088;DHT22;52872;52.994;6.940;2022-07-10T15:16:43;22.70;91.10
66088;DHT22;52872;52.994;6.940;2022-07-10T15:19:10;22.70;91.20
66088;DHT22;52872;52.994;6.940;2022-07-10T15:21:37;22.70;91.30
66088;DHT22;52872;52.994;6.940;2022-07-10T15:24:05;22.80;90.90
66088;DHT22;52872;52.994;6.940;2022-07-10T15:26:32;22.80;90.90
66088;DHT22;52872;52.994;6.940;2022-07-10T15:28:59;22.90;90.80
66088;DHT22;52872;52.994;6.940;2022-07-10T15:31:26;22.90;90.70
66088;DHT22;52872;52.994;6.940;2022-07-10T15:33:53;22.90;90.70
66088;DHT22;52872;52.994;6.940;2022-07-10T15:36:20;22.90;90.70
66088;DHT22;52872;52.994;6.940;2022-07-10T15:38:48;22.80;90.70
66088;DHT22;52872;52.994;6.940;2022-07-10T15:41:16;22.80;90.50
66088;DHT22;52872;52.994;6.940;2022-07-10T15:43:43;22.70;90.80
66088;DHT22;52872;52.994;6.940;2022-07-10T15:46:11;22.70;90.90
66088;DHT22;52872;52.994;6.940;2022-07-10T15:48:41;22.70;90.90
66088;DHT22;52872;52.994;6.940;2022-07-10T15:51:08;22.80;90.80
66088;DHT22;52872;52.994;6.940;2022-07-10T15:53:35;22.90;90.40
66088;DHT22;52872;52.994;6.940;2022-07-10T15:56:03;22.90;90.30
66088;DHT22;52872;52.994;6.940;2022-07-10T15:58:30;23.00;90.50
66088;DHT22;52872;52.994;6.940;2022-07-10T16:00:57;23.10;90.50
66088;DHT22;52872;52.994;6.940;2022-07-10T16:03:24;23.10;90.20
66088;DHT22;52872;52.994;6.940;2022-07-10T16:05:51;23.20;90.10
66088;DHT22;52872;52.994;6.940;2022-07-10T16:08:18;23.20;90.00
66088;DHT22;52872;52.994;6.940;2022-07-10T16:10:48;23.20;89.90
66088;DHT22;52872;52.994;6.940;2022-07-10T16:13:15;23.20;89.60
66088;DHT22;52872;52.994;6.940;2022-07-10T16:15:42;23.10;89.40
66088;DHT22;52872;52.994;6.940;2022-07-10T16:18:09;23.00;89.40